Time;durP1;ratioP1;P1;durP2;ratioP2;P2;SDS_P1;SDS_P2;PMS_P1;PMS_P2;Temp;Humidity;BMP_temperature;BMP_pressure;BME280_temperature;BME280_humidity;BME280_pressure;Samples;Min_cycle;Max_cycle;Signal;HPM_P1;HPM_P2
2023/05/18 00:01:52;;;;;;;18.85;15.02;;;;;;;-140.66;100.00;55571.53;5060247;28;20025;-80
2023/05/18 00:04:38;;;;;;;20.92;15.35;;;;;;;-140.66;100.00;55571.53;5074240;28;20035;-79
2023/05/18 00:07:24;;;;;;;22.50;15.63;;;;;;;-140.66;100.00;55571.53;5074469;28;20112;-79
2023/05/18 00:10:10;;;;;;;20.05;16.05;;;;;;;-140.66;100.00;55571.53;5061300;28;20033;-79
2023/05/18 00:12:56;;;;;;;19.50;14.23;;;;;;;-140.66;100.00;55571.53;5060376;28;20094;-80
2023/05/18 00:15:41;;;;;;;23.35;14.43;;;;;;;-140.66;100.00;55571.53;5059860;28;20040;-80
2023/05/18 00:18:27;;;;;;;19.38;14.65;;;;;;;-140.66;100.00;55571.53;5074699;28;20445;-79
2023/05/18 00:21:15;;;;;;;22.48;16.17;;;;;;;-140.66;100.00;55571.53;5074941;28;20033;-79
2023/05/18 00:24:00;;;;;;;20.55;14.15;;;;;;;-140.66;100.00;55571.53;5074785;28;20063;-79
2023/05/18 00:26:48;;;;;;;26.17;16.15;;;;;;;-140.66;100.00;55571.53;5059774;28;20119;-79
2023/05/18 00:29:33;;;;;;;20.38;15.52;;;;;;;-140.66;100.00;55571.53;5074580;28;20484;-79
2023/05/18 00:32:19;;;;;;;21.83;15.02;;;;;;;-140.66;100.00;55571.53;5073622;28;20094;-80
2023/05/18 00:35:05;;;;;;;19.35;14.43;;;;;;;-140.66;100.00;55571.53;5073928;28;20021;-80
2023/05/18 00:37:51;;;;;;;20.52;15.20;;;;;;;-140.66;100.00;55571.53;5073687;28;20039;-80
2023/05/18 00:40:38;;;;;;;21.42;15.68;;;;;;;-140.66;100.00;55571.53;5073660;28;20024;-80
2023/05/18 00:43:24;;;;;;;24.80;13.55;;;;;;;-140.66;100.00;55571.53;5073902;28;20029;-81
2023/05/18 00:46:10;;;;;;;21.80;13.30;;;;;;;-140.66;100.00;55571.53;5073901;28;20090;-80
2023/05/18 00:48:57;;;;;;;22.52;14.18;;;;;;;-140.66;100.00;55571.53;5072834;28;20032;-80
2023/05/18 00:51:44;;;;;;;20.40;13.75;;;;;;;-140.66;100.00;55571.53;5075203;28;20036;-80
2023/05/18 00:54:32;;;;;;;19.90;13.43;;;;;;;-140.66;100.00;55571.53;5074113;28;20029;-79
2023/05/18 00:57:18;;;;;;;21.48;15.55;;;;;;;-140.66;100.00;55571.53;5075368;28;20341;-80
2023/05/18 01:00:09;;;;;;;21.45;14.95;;;;;;;-140.66;100.00;55571.53;5071793;28;20055;-79
2023/05/18 01:02:55;;;;;;;17.50;15.25;;;;;;;-140.66;100.00;55571.53;5097541;28;20028;-80
2023/05/18 01:05:41;;;;;;;21.45;14.35;;;;;;;-140.66;100.00;55571.53;5097865;28;20046;-78
2023/05/18 01:08:27;;;;;;;21.63;14.98;;;;;;;-140.66;100.00;55571.53;5083180;28;20031;-80
2023/05/18 01:11:38;;;;;;;21.15;14.23;;;;;;;-140.66;100.00;55571.53;5097285;28;20032;-79
2023/05/18 01:14:36;;;;;;;21.15;14.00;;;;;;;-140.66;100.00;55571.53;5097107;28;20316;-79
2023/05/18 01:17:33;;;;;;;22.58;15.05;;;;;;;-140.66;100.00;55571.53;5097635;28;20028;-79
2023/05/18 01:20:37;;;;;;;19.08;14.95;;;;;;;-140.66;100.00;55571.53;5096956;28;20129;-78
2023/05/18 01:23:48;;;;;;;18.65;14.45;;;;;;;-140.66;100.00;55571.53;5097652;28;20060;-80
2023/05/18 01:26:38;;;;;;;19.73;14.80;;;;;;;-140.66;100.00;55571.53;5083625;28;20462;-79
2023/05/18 01:29:25;;;;;;;20.85;14.02;;;;;;;-140.66;100.00;55571.53;5076789;28;20045;-78
2023/05/18 01:32:19;;;;;;;17.45;13.50;;;;;;;-140.66;100.00;55571.53;5062331;28;20050;-80
2023/05/18 01:35:05;;;;;;;18.27;14.18;;;;;;;-140.66;100.00;55571.53;5076845;28;20024;-80
2023/05/18 01:37:51;;;;;;;19.42;13.93;;;;;;;-140.66;100.00;55571.53;5062374;28;20453;-80
2023/05/18 01:40:46;;;;;;;19.95;13.60;;;;;;;-140.66;100.00;55571.53;5062605;28;20408;-80
2023/05/18 01:43:35;;;;;;;14.57;12.43;;;;;;;-140.66;100.00;55571.53;5079191;28;20008;-80
2023/05/18 01:46:35;;;;;;;13.80;11.90;;;;;;;-140.66;100.00;55571.53;5090181;28;20028;-81
2023/05/18 01:49:32;;;;;;;18.27;13.13;;;;;;;-140.66;100.00;55571.53;5077835;28;20124;-80
2023/05/18 01:52:45;;;;;;;24.55;14.10;;;;;;;-140.66;100.00;55571.53;5061226;28;20031;-79
2023/05/18 01:55:33;;;;;;;23.02;14.05;;;;;;;-140.66;100.00;55571.53;5061753;28;20091;-80
2023/05/18 01:58:21;;;;;;;18.35;14.10;;;;;;;-140.66;100.00;55571.53;5061913;28;20070;-80
2023/05/18 02:01:07;;;;;;;19.20;13.73;;;;;;;-140.66;100.00;55571.53;5063100;28;20024;-81
2023/05/18 02:03:53;;;;;;;18.98;13.88;;;;;;;-140.66;100.00;55571.53;5076144;28;20021;-79
2023/05/18 02:06:38;;;;;;;18.40;12.90;;;;;;;-140.66;100.00;55571.53;5065260;28;20347;-79
2023/05/18 02:09:24;;;;;;;18.67;12.52;;;;;;;-140.66;100.00;55571.53;5079872;28;20036;-79
2023/05/18 02:12:10;;;;;;;18.85;12.15;;;;;;;-140.66;100.00;55571.53;5065707;28;20028;-80
2023/05/18 02:14:57;;;;;;;15.52;11.70;;;;;;;-140.66;100.00;55571.53;5084507;28;20027;-77
2023/05/18 02:17:43;;;;;;;18.10;12.02;;;;;;;-140.66;100.00;55571.53;5086436;28;20092;-77
2023/05/18 02:20:32;;;;;;;19.15;13.15;;;;;;;-140.66;100.00;55571.53;5071175;28;20055;-78
2023/05/18 02:23:17;;;;;;;16.08;13.00;;;;;;;-140.66;100.00;55571.53;5077754;28;20025;-79
2023/05/18 02:26:03;;;;;;;20.65;13.30;;;;;;;-140.66;100.00;55571.53;5061847;28;20020;-79
2023/05/18 02:28:49;;;;;;;18.17;12.70;;;;;;;-140.66;100.00;55571.53;5075752;28;20048;-80
2023/05/18 02:31:35;;;;;;;19.20;13.10;;;;;;;-140.66;100.00;55571.53;5075688;28;20115;-79
2023/05/18 02:34:21;;;;;;;16.27;12.23;;;;;;;-140.66;100.00;55571.53;5061446;28;20028;-79
2023/05/18 02:37:09;;;;;;;18.73;14.13;;;;;;;-140.66;100.00;55571.53;5062318;28;20059;-78
2023/05/18 02:39:55;;;;;;;17.35;12.35;;;;;;;-140.66;100.00;55571.53;5061042;28;20035;-81
2023/05/18 02:42:41;;;;;;;16.20;12.05;;;;;;;-140.66;100.00;55571.53;5075658;28;20059;-79
2023/05/18 02:45:26;;;;;;;15.52;11.45;;;;;;;-140.66;100.00;55571.53;5076249;28;20024;-80
2023/05/18 02:48:12;;;;;;;15.65;10.98;;;;;;;-140.66;100.00;55571.53;5061317;28;20025;-79
2023/05/18 02:50:58;;;;;;;15.23;11.48;;;;;;;-140.66;100.00;55571.53;5075157;28;20044;-78
2023/05/18 02:53:43;;;;;;;16.45;11.80;;;;;;;-140.66;100.00;55571.53;5061119;28;20035;-79
2023/05/18 02:56:31;;;;;;;14.95;9.73;;;;;;;-140.66;100.00;55571.53;5060533;28;20033;-80
2023/05/18 02:59:17;;;;;;;11.65;9.00;;;;;;;-140.66;100.00;55571.53;5075241;28;20115;-80
2023/05/18 03:02:03;;;;;;;15.63;9.00;;;;;;;-140.66;100.00;55571.53;5074857;28;20427;-79
2023/05/18 03:04:52;;;;;;;10.95;8.30;;;;;;;-140.66;100.00;55571.53;5075234;28;20032;-80
2023/05/18 03:07:38;;;;;;;12.38;8.30;;;;;;;-140.66;100.00;55571.53;5060019;28;20029;-79
2023/05/18 03:10:24;;;;;;;10.27;7.88;;;;;;;-140.66;100.00;55571.53;5074824;28;20028;-79
2023/05/18 03:13:10;;;;;;;11.95;8.57;;;;;;;-140.66;100.00;55571.53;5061007;28;20024;-78
2023/05/18 03:15:56;;;;;;;11.23;8.45;;;;;;;-140.66;100.00;55571.53;5074343;28;20056;-80
2023/05/18 03:18:42;;;;;;;12.80;8.10;;;;;;;-140.66;100.00;55571.53;5074156;28;20111;-80
2023/05/18 03:21:32;;;;;;;13.52;8.70;;;;;;;-140.66;100.00;55571.53;5074440;28;20024;-80
2023/05/18 03:24:19;;;;;;;13.55;8.55;;;;;;;-140.66;100.00;55571.53;5074950;28;20042;-78
2023/05/18 03:27:06;;;;;;;11.60;8.32;;;;;;;-140.66;100.00;55571.53;5060863;28;20032;-78
2023/05/18 03:29:52;;;;;;;11.90;8.10;;;;;;;-140.66;100.00;55571.53;5080447;28;20388;-79
2023/05/18 03:32:37;;;;;;;14.35;8.32;;;;;;;-140.66;100.00;55571.53;5081517;28;20047;-79
2023/05/18 03:35:23;;;;;;;14.07;8.30;;;;;;;-140.66;100.00;55571.53;5093995;28;20027;-80
2023/05/18 03:38:09;;;;;;;13.50;8.45;;;;;;;-140.66;100.00;55571.53;5094818;28;20020;-79
2023/05/18 03:40:55;;;;;;;14.50;8.38;;;;;;;-140.66;100.00;55571.53;5094669;28;20024;-80
2023/05/18 03:43:40;;;;;;;13.95;7.82;;;;;;;-140.66;100.00;55571.53;5081280;28;20396;-80
2023/05/18 03:46:26;;;;;;;11.65;8.43;;;;;;;-140.66;100.00;55571.53;5080728;28;20576;-80
2023/05/18 03:49:12;;;;;;;11.23;7.47;;;;;;;-140.66;100.00;55571.53;5081038;28;20110;-79
2023/05/18 03:51:58;;;;;;;11.85;8.52;;;;;;;-140.66;100.00;55571.53;5095957;28;20031;-80
2023/05/18 03:54:43;;;;;;;12.38;8.15;;;;;;;-140.66;100.00;55571.53;5093968;28;20028;-80
2023/05/18 03:57:30;;;;;;;11.43;9.05;;;;;;;-140.66;100.00;55571.53;5078383;28;20508;-80
2023/05/18 04:00:16;;;;;;;12.73;8.50;;;;;;;-140.66;100.00;55571.53;5093774;28;20039;-80
2023/05/18 04:03:02;;;;;;;12.32;8.65;;;;;;;-140.66;100.00;55571.53;5080565;28;20024;-80
2023/05/18 04:05:48;;;;;;;16.17;9.05;;;;;;;-140.66;100.00;55571.53;5094552;28;20115;-79
2023/05/18 04:08:35;;;;;;;12.70;9.07;;;;;;;-140.66;100.00;55571.53;5094428;28;20024;-79
2023/05/18 04:11:21;;;;;;;17.63;10.48;;;;;;;-140.66;100.00;55571.53;5080695;28;20063;-80
2023/05/18 04:14:10;;;;;;;12.75;10.18;;;;;;;-140.66;100.00;55571.53;5095082;28;20117;-81
2023/05/18 04:16:57;;;;;;;15.15;10.70;;;;;;;-140.66;100.00;55571.53;5094072;28;20020;-80
2023/05/18 04:19:42;;;;;;;22.75;12.05;;;;;;;-140.66;100.00;55571.53;5079888;28;20028;-81
2023/05/18 04:22:30;;;;;;;18.08;12.35;;;;;;;-140.66;100.00;55571.53;5094199;28;20403;-78
2023/05/18 04:25:16;;;;;;;20.85;13.65;;;;;;;-140.66;100.00;55571.53;5080432;28;20047;-75
2023/05/18 04:28:02;;;;;;;19.50;13.45;;;;;;;-140.66;100.00;55571.53;5095549;28;20063;-78
2023/05/18 04:30:47;;;;;;;18.88;13.68;;;;;;;-140.66;100.00;55571.53;5082190;28;20115;-78
2023/05/18 04:33:33;;;;;;;21.67;14.00;;;;;;;-140.66;100.00;55571.53;5084502;28;20028;-78
2023/05/18 04:36:19;;;;;;;23.58;13.73;;;;;;;-140.66;100.00;55571.53;5085000;28;20054;-78
2023/05/18 04:39:06;;;;;;;22.40;14.40;;;;;;;-140.66;100.00;55571.53;5097987;28;20038;-78
2023/05/18 04:41:58;;;;;;;22.05;13.70;;;;;;;-140.66;100.00;55571.53;5084157;28;20039;-77
2023/05/18 04:44:44;;;;;;;20.60;13.07;;;;;;;-140.66;100.00;55571.53;5084417;28;20359;-78
2023/05/18 04:47:30;;;;;;;21.40;13.40;;;;;;;-140.66;100.00;55571.53;5097911;28;20367;-77
2023/05/18 04:50:16;;;;;;;29.27;17.27;;;;;;;-140.66;100.00;55571.53;5111901;28;20089;-78
2023/05/18 04:53:04;;;;;;;21.92;12.88;;;;;;;-140.66;100.00;55571.53;5099433;28;20024;-78
2023/05/18 04:55:51;;;;;;;16.45;12.32;;;;;;;-140.66;100.00;55571.53;5098031;28;20408;-78
2023/05/18 04:58:37;;;;;;;18.80;12.20;;;;;;;-140.66;100.00;55571.53;5084880;28;20088;-78
2023/05/18 05:01:22;;;;;;;17.45;12.77;;;;;;;-140.66;100.00;55571.53;5098251;28;20452;-77
2023/05/18 05:04:08;;;;;;;20.02;12.85;;;;;;;-140.66;100.00;55571.53;5084375;28;20406;-78
2023/05/18 05:06:54;;;;;;;21.38;12.32;;;;;;;-140.66;100.00;55571.53;5083353;28;20043;-77
2023/05/18 05:09:40;;;;;;;19.70;13.30;;;;;;;-140.66;100.00;55571.53;5097227;28;20039;-78
2023/05/18 05:12:26;;;;;;;17.75;12.43;;;;;;;-140.66;100.00;55571.53;5117397;28;20012;-78
2023/05/18 05:15:11;;;;;;;20.38;13.18;;;;;;;-140.66;100.00;55571.53;5097412;28;20031;-77
2023/05/18 05:17:57;;;;;;;24.27;12.50;;;;;;;-140.66;100.00;55571.53;5097416;28;20351;-78
2023/05/18 05:20:43;;;;;;;20.65;13.15;;;;;;;-140.66;100.00;55571.53;5082919;28;20028;-78
2023/05/18 05:23:29;;;;;;;19.42;12.52;;;;;;;-140.66;100.00;55571.53;5096991;28;20114;-79
2023/05/18 05:26:14;;;;;;;19.65;13.65;;;;;;;-140.66;100.00;55571.53;5097387;28;20533;-78
2023/05/18 05:29:00;;;;;;;18.35;12.10;;;;;;;-140.66;100.00;55571.53;5095946;28;20048;-78
2023/05/18 05:31:46;;;;;;;16.13;12.05;;;;;;;-140.66;100.00;55571.53;5081640;28;20028;-78
2023/05/18 05:34:35;;;;;;;16.73;12.35;;;;;;;-140.66;100.00;55571.53;5084140;28;20357;-78
2023/05/18 05:37:21;;;;;;;16.15;11.32;;;;;;;-140.66;100.00;55571.53;5082543;28;20027;-77
2023/05/18 05:40:08;;;;;;;20.27;13.43;;;;;;;-140.66;100.00;55571.53;5083829;28;20432;-78
2023/05/18 05:42:54;;;;;;;72.18;20.95;;;;;;;-140.66;100.00;55571.53;5082830;28;20135;-78
2023/05/18 05:45:41;;;;;;;21.92;12.45;;;;;;;-140.66;100.00;55571.53;5083387;28;20372;-77
2023/05/18 05:48:27;;;;;;;18.85;12.20;;;;;;;-140.66;100.00;55571.53;5096320;28;20028;-79
2023/05/18 05:51:13;;;;;;;17.75;11.93;;;;;;;-140.66;100.00;55571.53;5097306;28;20027;-79
2023/05/18 05:53:58;;;;;;;20.30;13.45;;;;;;;-140.66;100.00;55571.53;5097220;28;20031;-77
2023/05/18 05:56:44;;;;;;;18.55;12.43;;;;;;;-140.66;100.00;55571.53;5096276;28;20031;-78
2023/05/18 05:59:30;;;;;;;16.08;11.88;;;;;;;-140.66;100.00;55571.53;5097065;28;20116;-78
2023/05/18 06:02:15;;;;;;;17.73;12.77;;;;;;;-140.66;100.00;55571.53;5096367;28;20031;-77
2023/05/18 06:05:01;;;;;;;15.55;11.25;;;;;;;-140.66;100.00;55571.53;5096378;28;20444;-78
2023/05/18 06:07:47;;;;;;;16.85;11.98;;;;;;;-140.66;100.00;55571.53;5096470;28;20032;-79
2023/05/18 06:10:33;;;;;;;20.50;11.98;;;;;;;-140.66;100.00;55571.53;5082845;28;20043;-77
2023/05/18 06:13:19;;;;;;;17.88;12.82;;;;;;;-140.66;100.00;55571.53;5083678;28;20020;-78
2023/05/18 06:16:04;;;;;;;19.65;14.35;;;;;;;-140.66;100.00;55571.53;5081726;28;20032;-78
2023/05/18 06:18:50;;;;;;;26.20;18.23;;;;;;;-140.66;100.00;55571.53;5095794;28;20177;-78
2023/05/18 06:21:36;;;;;;;19.90;15.55;;;;;;;-140.66;100.00;55571.53;5095456;28;20100;-78
2023/05/18 06:24:22;;;;;;;17.08;13.02;;;;;;;-140.66;100.00;55571.53;5096347;28;20020;-79
2023/05/18 06:27:07;;;;;;;19.30;14.27;;;;;;;-140.66;100.00;55571.53;5095608;28;20035;-79
2023/05/18 06:29:53;;;;;;;20.27;14.82;;;;;;;-140.66;100.00;55571.53;5096423;28;20039;-79
2023/05/18 06:32:39;;;;;;;18.50;12.30;;;;;;;-140.66;100.00;55571.53;5081468;28;20070;-78
2023/05/18 06:35:25;;;;;;;16.25;11.52;;;;;;;-140.66;100.00;55571.53;5081240;28;20023;-78
2023/05/18 06:38:11;;;;;;;14.30;11.50;;;;;;;-140.66;100.00;55571.53;5082771;28;20028;-77
2023/05/18 06:40:56;;;;;;;25.83;12.13;;;;;;;-140.66;100.00;55571.53;5081218;28;20024;-78
2023/05/18 06:43:42;;;;;;;17.70;11.25;;;;;;;-140.66;100.00;55571.53;5081567;28;20114;-79
2023/05/18 06:46:28;;;;;;;20.95;12.73;;;;;;;-140.66;100.00;55571.53;5096325;28;20032;-79
2023/05/18 06:49:13;;;;;;;24.08;13.75;;;;;;;-140.66;100.00;55571.53;5094919;28;20115;-79
2023/05/18 06:51:59;;;;;;;27.60;16.17;;;;;;;-140.66;100.00;55571.53;5081109;28;20032;-79
2023/05/18 06:54:48;;;;;;;23.30;14.00;;;;;;;-140.66;100.00;55571.53;5079894;28;20032;-78
2023/05/18 06:57:34;;;;;;;15.82;12.18;;;;;;;-140.66;100.00;55571.53;5096026;28;20063;-78
2023/05/18 07:00:19;;;;;;;19.80;12.30;;;;;;;-140.66;100.00;55571.53;5079915;28;20028;-78
2023/05/18 07:03:05;;;;;;;16.58;11.55;;;;;;;-140.66;100.00;55571.53;5080879;28;20181;-78
2023/05/18 07:05:51;;;;;;;15.63;10.65;;;;;;;-140.66;100.00;55571.53;5095134;28;20081;-78
2023/05/18 07:08:37;;;;;;;15.07;10.20;;;;;;;-140.66;100.00;55571.53;5080885;28;20035;-78
2023/05/18 07:11:23;;;;;;;12.23;7.38;;;;;;;-140.66;100.00;55571.53;5094998;28;20114;-77
2023/05/18 07:14:08;;;;;;;10.75;7.30;;;;;;;-140.66;100.00;55571.53;5095308;28;20051;-78
2023/05/18 07:16:54;;;;;;;10.02;7.80;;;;;;;-140.66;100.00;55571.53;5080542;28;20039;-79
2023/05/18 07:19:40;;;;;;;11.60;8.70;;;;;;;-140.66;100.00;55571.53;5081429;28;20039;-78
2023/05/18 07:22:26;;;;;;;16.35;11.10;;;;;;;-140.66;100.00;55571.53;5094464;28;20360;-78
2023/05/18 07:25:11;;;;;;;16.83;10.73;;;;;;;-140.66;100.00;55571.53;5095409;28;20356;-78
2023/05/18 07:27:57;;;;;;;14.30;10.40;;;;;;;-140.66;100.00;55571.53;5080928;28;20044;-78
2023/05/18 07:30:43;;;;;;;15.07;11.20;;;;;;;-140.66;100.00;55571.53;5080247;28;20024;-78
2023/05/18 07:33:29;;;;;;;15.07;11.00;;;;;;;-140.66;100.00;55571.53;5094905;28;20028;-78
2023/05/18 07:36:15;;;;;;;14.63;10.13;;;;;;;-140.66;100.00;55571.53;5094870;28;20016;-79
2023/05/18 07:39:00;;;;;;;15.93;10.88;;;;;;;-140.66;100.00;55571.53;5081289;28;20032;-78
2023/05/18 07:41:48;;;;;;;15.27;10.27;;;;;;;-140.66;100.00;55571.53;5102286;28;20016;-78
2023/05/18 07:44:34;;;;;;;14.57;8.73;;;;;;;-140.66;100.00;55571.53;5103501;28;20093;-76
2023/05/18 07:47:20;;;;;;;15.20;9.85;;;;;;;-140.66;100.00;55571.53;5096391;28;20024;-76
2023/05/18 07:50:06;;;;;;;12.40;9.48;;;;;;;-140.66;100.00;55571.53;5094851;28;20457;-76
2023/05/18 07:52:52;;;;;;;12.18;9.48;;;;;;;-140.66;100.00;55571.53;5080636;28;20349;-77
2023/05/18 07:55:38;;;;;;;12.57;8.70;;;;;;;-140.66;100.00;55571.53;5096675;28;20035;-77
2023/05/18 07:58:23;;;;;;;14.18;9.00;;;;;;;-140.66;100.00;55571.53;5096186;28;20032;-77
2023/05/18 08:01:09;;;;;;;14.27;9.20;;;;;;;-140.66;100.00;55571.53;5094096;28;20448;-76
2023/05/18 08:03:55;;;;;;;15.48;9.77;;;;;;;-140.66;100.00;55571.53;5095348;28;20024;-76
2023/05/18 08:06:41;;;;;;;16.50;10.57;;;;;;;-140.66;100.00;55571.53;5078836;28;20096;-77
2023/05/18 08:09:27;;;;;;;13.70;9.52;;;;;;;-140.66;100.00;55571.53;5098178;28;20028;-76
2023/05/18 08:12:12;;;;;;;13.18;8.88;;;;;;;-140.66;100.00;55571.53;5101719;28;20101;-77
2023/05/18 08:15:05;;;;;;;12.30;8.40;;;;;;;-140.66;100.00;55571.53;5085717;28;20028;-75
2023/05/18 08:17:51;;;;;;;12.00;8.80;;;;;;;-140.66;100.00;55571.53;5097890;28;20439;-77
2023/05/18 08:20:37;;;;;;;14.82;8.43;;;;;;;-140.66;100.00;55571.53;5098314;28;20363;-77
2023/05/18 08:23:23;;;;;;;13.10;8.88;;;;;;;-140.66;100.00;55571.53;5098185;28;20479;-77
2023/05/18 08:26:11;;;;;;;17.30;10.20;;;;;;;-140.66;100.00;55571.53;5097804;28;20036;-77
2023/05/18 08:28:57;;;;;;;18.80;10.93;;;;;;;-140.66;100.00;55571.53;5083966;28;20063;-77
2023/05/18 08:31:43;;;;;;;12.63;10.20;;;;;;;-140.66;100.00;55571.53;5084401;28;20039;-76
2023/05/18 08:34:29;;;;;;;15.30;9.65;;;;;;;-140.66;100.00;55571.53;5099153;28;20024;-77
2023/05/18 08:37:14;;;;;;;17.10;10.70;;;;;;;-140.66;100.00;55571.53;5102935;28;20028;-75
2023/05/18 08:40:00;;;;;;;15.82;11.52;;;;;;;-140.66;100.00;55571.53;5093221;28;20028;-76
2023/05/18 08:42:59;;;;;;;18.90;12.82;;;;;;;-140.66;100.00;55571.53;5103982;28;20122;-76
2023/05/18 08:46:09;;;;;;;13.38;10.50;;;;;;;-140.66;100.00;55571.53;5083860;28;20096;-77
2023/05/18 08:48:57;;;;;;;18.25;11.35;;;;;;;-140.66;100.00;55571.53;5098197;28;20420;-78
2023/05/18 08:51:55;;;;;;;16.50;11.65;;;;;;;-140.66;100.00;55571.53;5084442;28;20030;-77
2023/05/18 08:54:41;;;;;;;20.55;14.05;;;;;;;-140.66;100.00;55571.53;5082394;28;20031;-77
2023/05/18 08:57:29;;;;;;;16.73;10.85;;;;;;;-140.66;100.00;55571.53;5097675;28;20027;-77
2023/05/18 09:00:16;;;;;;;17.30;10.68;;;;;;;-140.66;100.00;55571.53;5082021;28;20028;-77
2023/05/18 09:03:04;;;;;;;11.55;9.38;;;;;;;-140.66;100.00;55571.53;5082403;28;20031;-77
2023/05/18 09:05:51;;;;;;;12.88;10.07;;;;;;;-140.66;100.00;55571.53;5083858;28;20118;-77
2023/05/18 09:08:37;;;;;;;14.40;9.38;;;;;;;-140.66;100.00;55571.53;5084320;28;20038;-76
2023/05/18 09:11:25;;;;;;;9.82;8.30;;;;;;;-140.66;100.00;55571.53;5096759;28;20468;-76
2023/05/18 09:14:11;;;;;;;15.82;8.45;;;;;;;-140.66;100.00;55571.53;5096793;28;20028;-76
2023/05/18 09:16:57;;;;;;;10.00;7.60;;;;;;;-140.66;100.00;55571.53;5083641;28;20034;-77
2023/05/18 09:19:43;;;;;;;9.70;7.22;;;;;;;-140.66;100.00;55571.53;5082880;28;20032;-77
2023/05/18 09:22:29;;;;;;;11.48;7.72;;;;;;;-140.66;100.00;55571.53;5096914;28;20043;-76
2023/05/18 09:25:16;;;;;;;12.15;8.18;;;;;;;-140.66;100.00;55571.53;5082304;28;20107;-77
2023/05/18 09:28:03;;;;;;;18.50;10.95;;;;;;;-140.66;100.00;55571.53;5096674;28;20384;-77
2023/05/18 09:30:48;;;;;;;10.32;7.90;;;;;;;-140.66;100.00;55571.53;5082576;28;20115;-76
2023/05/18 09:33:36;;;;;;;12.18;7.50;;;;;;;-140.66;100.00;55571.53;5083308;28;20071;-77
2023/05/18 09:36:24;;;;;;;13.00;6.90;;;;;;;-140.66;100.00;55571.53;5096697;28;20016;-77
2023/05/18 09:39:10;;;;;;;11.77;5.90;;;;;;;-140.66;100.00;55571.53;5083665;28;20062;-76
2023/05/18 09:41:56;;;;;;;13.45;5.53;;;;;;;-140.66;100.00;55571.53;5083138;28;20064;-77
2023/05/18 09:44:44;;;;;;;8.70;5.10;;;;;;;-140.66;100.00;55571.53;5096498;28;20055;-77
2023/05/18 09:47:32;;;;;;;11.50;6.43;;;;;;;-140.66;100.00;55571.53;5068548;28;20093;-78
2023/05/18 09:50:19;;;;;;;6.75;5.43;;;;;;;-140.66;100.00;55571.53;5082872;28;20324;-77
2023/05/18 09:53:07;;;;;;;7.45;5.10;;;;;;;-140.66;100.00;55571.53;5083028;28;20027;-77
2023/05/18 09:55:53;;;;;;;8.40;5.57;;;;;;;-140.66;100.00;55571.53;5096456;28;20036;-76
2023/05/18 09:58:39;;;;;;;8.73;5.40;;;;;;;-140.66;100.00;55571.53;5096528;28;20517;-77
2023/05/18 10:01:25;;;;;;;7.35;5.18;;;;;;;-140.66;100.00;55571.53;5095973;28;20028;-77
2023/05/18 10:04:11;;;;;;;9.07;5.65;;;;;;;-140.66;100.00;55571.53;5081423;28;20052;-76
2023/05/18 10:06:56;;;;;;;11.38;5.07;;;;;;;-140.66;100.00;55571.53;5082728;28;20024;-76
2023/05/18 10:09:44;;;;;;;9.98;6.13;;;;;;;-140.66;100.00;55571.53;5080653;28;20036;-76
2023/05/18 10:12:30;;;;;;;7.32;5.03;;;;;;;-140.66;100.00;55571.53;5082320;28;20105;-77
2023/05/18 10:15:19;;;;;;;6.57;4.45;;;;;;;-140.66;100.00;55571.53;5095713;28;20124;-76
2023/05/18 10:18:07;;;;;;;9.63;5.07;;;;;;;-140.66;100.00;55571.53;5081863;28;20460;-77
2023/05/18 10:20:56;;;;;;;10.10;3.92;;;;;;;-140.66;100.00;55571.53;5096506;28;20131;-76
2023/05/18 10:23:45;;;;;;;12.10;4.43;;;;;;;-140.66;100.00;55571.53;5082465;28;20039;-76
2023/05/18 10:26:37;;;;;;;9.07;4.30;;;;;;;-140.66;100.00;55571.53;5082273;28;20039;-77
2023/05/18 10:29:23;;;;;;;13.10;3.97;;;;;;;-140.66;100.00;55571.53;5095498;28;20040;-76
2023/05/18 10:32:12;;;;;;;7.53;4.03;;;;;;;-140.66;100.00;55571.53;5095200;28;20435;-76
2023/05/18 10:34:59;;;;;;;9.40;4.03;;;;;;;-140.66;100.00;55571.53;5095978;28;20448;-76
2023/05/18 10:37:49;;;;;;;5.15;4.03;;;;;;;-140.66;100.00;55571.53;5095895;28;20028;-76
2023/05/18 10:40:35;;;;;;;7.25;3.90;;;;;;;-140.66;100.00;55571.53;5096049;28;20416;-77
2023/05/18 10:43:26;;;;;;;9.43;3.60;;;;;;;-140.66;100.00;55571.53;5095727;28;20031;-77
2023/05/18 10:46:14;;;;;;;7.32;4.28;;;;;;;-140.66;100.00;55571.53;5082092;28;20028;-76
2023/05/18 10:49:03;;;;;;;8.70;4.65;;;;;;;-140.66;100.00;55571.53;5096167;28;20047;-76
2023/05/18 10:51:52;;;;;;;8.43;3.50;;;;;;;-140.66;100.00;55571.53;5096420;28;20479;-77
2023/05/18 10:54:39;;;;;;;4.93;3.67;;;;;;;-140.66;100.00;55571.53;5096399;28;20028;-75
2023/05/18 10:57:38;;;;;;;7.60;3.65;;;;;;;-140.66;100.00;55571.53;5107336;28;20050;-77
2023/05/18 11:00:24;;;;;;;9.80;3.78;;;;;;;-140.66;100.00;55571.53;5106614;28;20089;-77
2023/05/18 11:03:12;;;;;;;8.07;2.90;;;;;;;-140.66;100.00;55571.53;5094223;28;20038;-79
2023/05/18 11:06:13;;;;;;;6.22;2.85;;;;;;;-140.66;100.00;55571.53;5104753;28;20035;-81
2023/05/18 11:09:00;;;;;;;11.70;3.65;;;;;;;-140.66;100.00;55571.53;5092076;28;20020;-77
2023/05/18 11:11:55;;;;;;;5.72;2.70;;;;;;;-140.66;100.00;55571.53;5080313;28;20074;-78
2023/05/18 11:14:49;;;;;;;9.38;3.00;;;;;;;-140.66;100.00;55571.53;5095472;28;20110;-77
2023/05/18 11:17:35;;;;;;;4.10;2.60;;;;;;;-140.66;100.00;55571.53;5092802;28;20028;-77
2023/05/18 11:20:25;;;;;;;5.57;2.65;;;;;;;-140.66;100.00;55571.53;5093576;28;20439;-77
2023/05/18 11:23:17;;;;;;;8.20;3.00;;;;;;;-140.66;100.00;55571.53;5078403;28;20039;-78
2023/05/18 11:26:03;;;;;;;13.18;3.25;;;;;;;-140.66;100.00;55571.53;5093236;28;20020;-77
2023/05/18 11:28:51;;;;;;;5.97;2.50;;;;;;;-140.66;100.00;55571.53;5094511;28;20116;-77
2023/05/18 11:31:45;;;;;;;6.15;2.80;;;;;;;-140.66;100.00;55571.53;5086172;28;20038;-78
2023/05/18 11:34:45;;;;;;;5.43;2.42;;;;;;;-140.66;100.00;55571.53;5093558;28;20039;-77
2023/05/18 11:37:54;;;;;;;7.97;2.50;;;;;;;-140.66;100.00;55571.53;5099144;28;20024;-77
2023/05/18 11:40:48;;;;;;;10.35;2.88;;;;;;;-140.66;100.00;55571.53;5101016;28;20083;-79
2023/05/18 11:43:34;;;;;;;8.10;2.88;;;;;;;-140.66;100.00;55571.53;5095058;28;20023;-77
2023/05/18 11:46:20;;;;;;;5.28;2.60;;;;;;;-140.66;100.00;55571.53;5081612;28;20028;-78
2023/05/18 11:49:09;;;;;;;16.33;3.28;;;;;;;-140.66;100.00;55571.53;5093334;28;20107;-77
2023/05/18 11:52:04;;;;;;;10.98;2.90;;;;;;;-140.66;100.00;55571.53;5093435;28;20376;-78
2023/05/18 11:55:00;;;;;;;10.90;3.22;;;;;;;-140.66;100.00;55571.53;5093139;28;20024;-78
2023/05/18 11:57:52;;;;;;;7.88;2.90;;;;;;;-140.66;100.00;55571.53;5092859;28;20081;-77
2023/05/18 12:00:38;;;;;;;5.90;2.60;;;;;;;-140.66;100.00;55571.53;5092872;28;20074;-78
2023/05/18 12:03:25;;;;;;;13.57;2.90;;;;;;;-140.66;100.00;55571.53;5078260;28;20039;-78
2023/05/18 12:06:11;;;;;;;4.53;2.75;;;;;;;-140.66;100.00;55571.53;5094121;28;20043;-78
2023/05/18 12:08:58;;;;;;;5.03;2.75;;;;;;;-140.66;100.00;55571.53;5080304;28;20043;-78
2023/05/18 12:11:44;;;;;;;4.40;2.55;;;;;;;-140.66;100.00;55571.53;5093208;28;20039;-77
2023/05/18 12:14:30;;;;;;;4.97;3.00;;;;;;;-140.66;100.00;55571.53;5094489;28;20039;-78
2023/05/18 12:17:16;;;;;;;5.30;3.38;;;;;;;-140.66;100.00;55571.53;5080072;28;20028;-78
2023/05/18 12:20:03;;;;;;;7.72;2.72;;;;;;;-140.66;100.00;55571.53;5080193;28;20038;-77
2023/05/18 12:22:53;;;;;;;8.00;3.15;;;;;;;-140.66;100.00;55571.53;5079723;28;20024;-83
2023/05/18 12:25:40;;;;;;;5.57;3.53;;;;;;;-140.66;100.00;55571.53;5094306;28;20546;-82
2023/05/18 12:28:27;;;;;;;5.97;3.28;;;;;;;-140.66;100.00;55571.53;5078947;28;20365;-82
2023/05/18 12:31:14;;;;;;;5.68;3.17;;;;;;;-140.66;100.00;55571.53;5078987;28;20043;-83